createdAt,value
2017-10-01T00:02:01.453Z,15.13
2017-10-01T00:04:28.151Z,14.53
2017-10-01T00:06:54.731Z,15.77
2017-10-01T00:09:21.323Z,14.10
2017-10-01T00:11:47.906Z,12.83
2017-10-01T00:14:14.558Z,14.60
2017-10-01T00:16:41.211Z,13.70
2017-10-01T00:19:07.807Z,13.20
2017-10-01T00:21:34.390Z,13.00
2017-10-01T00:24:01.136Z,11.10
2017-10-01T00:26:27.715Z,11.80
2017-10-01T00:28:54.307Z,16.77
2017-10-01T00:31:20.898Z,13.43
2017-10-01T00:33:47.482Z,12.20
2017-10-01T00:36:14.083Z,14.80
2017-10-01T00:38:40.658Z,12.30
2017-10-01T00:41:07.401Z,14.37
2017-10-01T00:43:33.985Z,14.10
2017-10-01T00:46:00.566Z,16.70
2017-10-01T00:48:27.171Z,11.83
2017-10-01T00:50:53.747Z,17.63
2017-10-01T00:53:20.339Z,18.10
2017-10-01T00:55:46.930Z,20.73
2017-10-01T00:58:13.826Z,10.63
2017-10-01T01:00:40.410Z,18.40
2017-10-01T01:03:07.004Z,11.73
2017-10-01T01:05:33.586Z,18.90
2017-10-01T01:08:00.169Z,11.70
2017-10-01T01:10:26.779Z,14.13
2017-10-01T01:12:53.372Z,12.30
2017-10-01T01:15:19.958Z,13.27
2017-10-01T01:17:46.551Z,13.03
2017-10-01T01:20:13.286Z,16.90
2017-10-01T01:22:39.870Z,15.13
2017-10-01T01:25:06.457Z,19.83
2017-10-01T01:27:33.055Z,17.13
2017-10-01T01:29:59.638Z,14.17
2017-10-01T01:32:26.229Z,19.33
2017-10-01T01:34:52.815Z,13.90
2017-10-01T01:37:19.555Z,13.50
2017-10-01T01:39:46.126Z,16.33
2017-10-01T01:42:12.710Z,14.60
2017-10-01T01:44:39.303Z,17.23
2017-10-01T01:47:05.891Z,13.37
2017-10-01T01:49:32.478Z,15.10
2017-10-01T01:51:59.062Z,14.30
2017-10-01T01:54:25.658Z,12.70
2017-10-01T01:56:52.238Z,12.90
2017-10-01T01:59:18.834Z,16.30
2017-10-01T02:01:45.438Z,15.70
2017-10-01T02:04:12.018Z,14.83
2017-10-01T02:06:38.630Z,16.47
2017-10-01T02:09:05.218Z,20.93
2017-10-01T02:11:31.815Z,12.43
2017-10-01T02:13:58.394Z,20.63
2017-10-01T02:16:24.979Z,13.10
2017-10-01T02:18:51.571Z,22.03
2017-10-01T02:21:18.158Z,16.03
2017-10-01T02:23:44.754Z,18.13
2017-10-01T02:26:11.339Z,18.27
2017-10-01T02:28:37.934Z,14.57
2017-10-01T02:31:04.527Z,16.30
2017-10-01T02:33:31.116Z,17.40
2017-10-01T02:35:57.702Z,20.67
2017-10-01T02:38:24.287Z,16.23
2017-10-01T02:40:50.882Z,17.10
2017-10-01T02:43:17.471Z,16.00
2017-10-01T02:45:44.058Z,17.90
2017-10-01T02:48:10.654Z,14.53
2017-10-01T02:50:37.242Z,19.83
2017-10-01T02:53:03.841Z,16.30
2017-10-01T02:55:30.435Z,13.70
2017-10-01T02:57:57.045Z,16.03
2017-10-01T03:00:23.643Z,16.10
2017-10-01T03:02:55.947Z,15.43
2017-10-01T03:05:22.614Z,22.37
2017-10-01T03:07:49.188Z,15.77
2017-10-01T03:10:15.802Z,18.93
2017-10-01T03:12:42.386Z,16.40
2017-10-01T03:15:08.970Z,11.17
2017-10-01T03:17:35.563Z,17.03
2017-10-01T03:20:02.153Z,15.60
2017-10-01T03:22:28.742Z,13.57
2017-10-01T03:24:55.327Z,14.70
2017-10-01T03:27:22.071Z,15.23
2017-10-01T03:29:48.658Z,14.80
2017-10-01T03:32:15.242Z,13.93
2017-10-01T03:34:41.838Z,16.00
2017-10-01T03:37:08.443Z,13.07
2017-10-01T03:39:35.030Z,17.83
2017-10-01T03:42:01.634Z,11.03
2017-10-01T03:44:28.230Z,15.60
2017-10-01T03:46:54.814Z,18.50
2017-10-01T03:49:21.399Z,11.70
2017-10-01T03:51:47.989Z,13.37
2017-10-01T03:54:14.578Z,12.07
2017-10-01T03:56:41.174Z,15.40
2017-10-01T03:59:07.770Z,13.87
2017-10-01T04:01:34.471Z,13.20
2017-10-01T04:04:01.050Z,16.33
2017-10-01T04:06:27.633Z,13.53
2017-10-01T04:08:54.226Z,17.03
2017-10-01T04:11:20.809Z,12.37
2017-10-01T04:13:47.399Z,14.53
2017-10-01T04:16:13.978Z,11.67
2017-10-01T04:18:40.683Z,10.40
2017-10-01T04:21:07.265Z,11.70
2017-10-01T04:23:33.851Z,12.40
2017-10-01T04:26:00.443Z,17.20
2017-10-01T04:28:27.034Z,13.00
2017-10-01T04:30:53.722Z,13.20
2017-10-01T04:33:20.303Z,11.53
2017-10-01T04:35:46.901Z,12.20
2017-10-01T04:38:13.481Z,10.30
2017-10-01T04:40:40.070Z,15.83
2017-10-01T04:43:06.664Z,13.13
2017-10-01T04:45:33.246Z,14.20
2017-10-01T04:47:59.843Z,12.87
2017-10-01T04:50:26.451Z,10.63
2017-10-01T04:52:53.064Z,11.40
2017-10-01T04:55:19.654Z,11.37
2017-10-01T04:57:46.241Z,13.80
2017-10-01T05:00:12.829Z,11.77
2017-10-01T05:02:39.413Z,11.57
2017-10-01T05:05:06.342Z,10.10
2017-10-01T05:07:32.929Z,12.93
2017-10-01T05:09:59.514Z,11.97
2017-10-01T05:12:26.126Z,11.97
2017-10-01T05:14:52.693Z,12.37
2017-10-01T05:17:19.287Z,14.30
2017-10-01T05:19:45.866Z,14.80
2017-10-01T05:22:12.802Z,11.80
2017-10-01T05:24:39.382Z,9.90
2017-10-01T05:27:05.966Z,13.70
2017-10-01T05:29:32.572Z,13.67
2017-10-01T05:31:59.155Z,12.43
2017-10-01T05:34:25.750Z,11.00
2017-10-01T05:36:52.334Z,12.70
2017-10-01T05:39:18.926Z,12.67
2017-10-01T05:41:45.525Z,11.00
2017-10-01T05:44:12.094Z,10.90
2017-10-01T05:46:38.704Z,12.53
2017-10-01T05:49:05.286Z,13.20
2017-10-01T05:51:31.875Z,11.07
2017-10-01T05:53:58.487Z,13.27
2017-10-01T05:56:25.070Z,11.20
2017-10-01T05:58:51.669Z,12.43
2017-10-01T06:01:18.262Z,12.33
2017-10-01T06:03:44.850Z,16.50
2017-10-01T06:06:11.451Z,14.20
2017-10-01T06:08:38.034Z,15.07
2017-10-01T06:11:04.629Z,17.23
2017-10-01T06:13:31.212Z,12.30
2017-10-01T06:15:58.193Z,18.27
2017-10-01T06:18:24.770Z,17.50
2017-10-01T06:20:51.355Z,14.40
2017-10-01T06:23:17.955Z,16.07
2017-10-01T06:25:44.539Z,13.13
2017-10-01T06:28:11.126Z,16.67
2017-10-01T06:30:37.719Z,18.40
2017-10-01T06:33:04.335Z,18.33
2017-10-01T06:35:30.914Z,19.17
2017-10-01T06:37:57.506Z,18.53
2017-10-01T06:40:24.134Z,17.40
2017-10-01T06:42:50.726Z,19.17
2017-10-01T06:45:17.490Z,21.10
2017-10-01T06:47:44.074Z,16.00
2017-10-01T06:50:10.693Z,21.30
2017-10-01T06:52:37.280Z,17.40
2017-10-01T06:55:03.861Z,16.23
2017-10-01T06:57:30.463Z,16.60
2017-10-01T07:00:07.431Z,17.80
2017-10-01T07:02:34.026Z,19.60
2017-10-01T07:05:00.614Z,17.00
2017-10-01T07:07:27.210Z,15.33
2017-10-01T07:09:53.826Z,14.33
2017-10-01T07:12:20.435Z,12.73
2017-10-01T07:14:47.031Z,16.20
2017-10-01T07:17:13.622Z,16.50
2017-10-01T07:19:40.522Z,13.70
2017-10-01T07:22:07.107Z,11.80
2017-10-01T07:24:33.693Z,14.63
2017-10-01T07:27:00.286Z,12.47
2017-10-01T07:29:26.870Z,12.40
2017-10-01T07:31:53.458Z,16.03
2017-10-01T07:34:20.052Z,12.37
2017-10-01T07:36:46.735Z,14.03
2017-10-01T07:39:13.484Z,13.60
2017-10-01T07:41:40.369Z,14.17
2017-10-01T07:44:06.966Z,14.60
2017-10-01T07:46:33.552Z,14.40
2017-10-01T07:49:00.188Z,12.17
2017-10-01T07:51:26.770Z,15.57
2017-10-01T07:53:53.372Z,14.63
2017-10-01T07:56:19.958Z,15.63
2017-10-01T07:58:46.732Z,14.37
2017-10-01T08:01:13.314Z,21.60
2017-10-01T08:03:39.898Z,15.80
2017-10-01T08:06:06.491Z,16.70
2017-10-01T08:08:33.074Z,15.20
2017-10-01T08:10:59.670Z,15.57
2017-10-01T08:13:26.288Z,19.90
2017-10-01T08:15:52.982Z,16.43
2017-10-01T08:18:19.569Z,18.23
2017-10-01T08:20:46.164Z,18.73
2017-10-01T08:23:12.762Z,18.00
2017-10-01T08:25:39.775Z,15.70
2017-10-01T08:28:06.398Z,16.77
2017-10-01T08:30:32.982Z,18.37
2017-10-01T08:32:59.578Z,17.10
2017-10-01T08:35:26.184Z,14.27
2017-10-01T08:37:52.767Z,17.90
2017-10-01T08:40:19.364Z,16.20
2017-10-01T08:42:45.947Z,15.60
2017-10-01T08:45:12.542Z,15.20
2017-10-01T08:47:39.126Z,15.17
2017-10-01T08:50:06.070Z,16.53
2017-10-01T08:52:32.665Z,16.70
2017-10-01T08:54:59.261Z,23.23
2017-10-01T08:57:25.851Z,14.20
2017-10-01T08:59:52.486Z,17.03
2017-10-01T09:02:19.079Z,14.73
2017-10-01T09:04:45.698Z,15.27
2017-10-01T09:07:12.430Z,23.00
2017-10-01T09:09:39.038Z,16.80
2017-10-01T09:12:05.616Z,16.63
2017-10-01T09:14:32.222Z,19.20
2017-10-01T09:16:58.790Z,12.47
2017-10-01T09:19:25.378Z,10.27
2017-10-01T09:21:52.034Z,12.30
2017-10-01T09:24:18.634Z,9.57
2017-10-01T09:26:45.222Z,9.70
2017-10-01T09:29:11.807Z,12.73
2017-10-01T09:31:38.402Z,12.10
2017-10-01T09:34:05.032Z,11.90
2017-10-01T09:36:31.652Z,15.13
2017-10-01T09:38:58.248Z,11.77
2017-10-01T09:41:28.630Z,11.10
2017-10-01T09:43:58.178Z,8.80
2017-10-01T09:46:24.870Z,9.57
2017-10-01T09:48:51.462Z,9.47
2017-10-01T09:51:18.054Z,9.00
2017-10-01T09:53:44.643Z,14.97
2017-10-01T09:56:11.257Z,10.43
2017-10-01T09:58:43.923Z,7.53
2017-10-01T10:01:10.503Z,6.93
2017-10-01T10:03:37.143Z,10.50
2017-10-01T10:06:03.737Z,10.40
2017-10-01T10:08:30.318Z,15.73
2017-10-01T10:10:56.917Z,7.73
2017-10-01T10:13:23.494Z,8.30
2017-10-01T10:15:50.110Z,7.57
2017-10-01T10:18:16.698Z,5.70
2017-10-01T10:20:43.283Z,5.50
2017-10-01T10:23:09.873Z,5.93
2017-10-01T10:25:36.446Z,7.53
2017-10-01T10:28:03.358Z,7.20
2017-10-01T10:30:30.007Z,7.17
2017-10-01T10:32:56.583Z,4.60
2017-10-01T10:35:23.174Z,5.67
2017-10-01T10:37:49.760Z,8.70
2017-10-01T10:40:16.372Z,6.23
2017-10-01T10:42:43.011Z,6.83
2017-10-01T10:45:09.585Z,6.37
2017-10-01T10:47:36.235Z,7.70
2017-10-01T10:50:02.813Z,6.77
2017-10-01T10:52:29.395Z,10.67
2017-10-01T10:54:56.031Z,4.80
2017-10-01T10:57:22.619Z,3.93
2017-10-01T10:59:49.201Z,5.47
2017-10-01T11:02:15.799Z,6.33
2017-10-01T11:04:42.402Z,3.20
2017-10-01T11:07:08.977Z,6.90
2017-10-01T11:09:35.606Z,3.83
2017-10-01T11:12:02.171Z,4.53
2017-10-01T11:14:28.907Z,4.13
2017-10-01T11:16:55.490Z,6.77
2017-10-01T11:19:22.074Z,3.30
2017-10-01T11:21:54.474Z,11.20
2017-10-01T11:24:21.045Z,8.43
2017-10-01T11:26:47.651Z,8.60
2017-10-01T11:29:14.228Z,5.67
2017-10-01T11:31:40.820Z,4.30
2017-10-01T11:34:07.459Z,6.73
2017-10-01T11:36:34.058Z,6.27
2017-10-01T11:39:00.640Z,9.40
2017-10-01T11:41:27.238Z,5.70
2017-10-01T11:43:53.814Z,6.73
2017-10-01T11:46:28.346Z,7.57
2017-10-01T11:48:54.946Z,4.60
2017-10-01T11:51:21.530Z,5.27
2017-10-01T11:53:48.429Z,5.73
2017-10-01T11:56:15.024Z,11.43
2017-10-01T11:58:47.926Z,7.07
2017-10-01T12:01:20.814Z,4.23
2017-10-01T12:03:47.433Z,4.40
2017-10-01T12:06:20.306Z,7.33
2017-10-01T12:08:46.894Z,3.73
2017-10-01T12:11:13.515Z,13.83
2017-10-01T12:13:40.098Z,5.57
2017-10-01T12:16:06.687Z,8.83
2017-10-01T12:18:33.298Z,7.37
2017-10-01T12:20:59.894Z,7.60
2017-10-01T12:23:32.674Z,11.50
2017-10-01T12:25:59.266Z,3.60
2017-10-01T12:28:25.878Z,10.80
2017-10-01T12:30:52.441Z,5.67
2017-10-01T12:33:19.031Z,6.53
2017-10-01T12:35:45.661Z,6.53
2017-10-01T12:38:12.273Z,6.00
2017-10-01T12:40:38.853Z,4.63
2017-10-01T12:43:05.551Z,4.90
2017-10-01T12:45:39.582Z,9.00
2017-10-01T12:48:06.538Z,6.50
2017-10-01T12:50:33.118Z,5.33
2017-10-01T12:52:59.697Z,3.97
2017-10-01T12:55:26.370Z,6.03
2017-10-01T12:57:52.970Z,4.50
2017-10-01T13:00:25.364Z,4.90
2017-10-01T13:02:51.944Z,7.27
2017-10-01T13:05:19.351Z,6.07
2017-10-01T13:07:45.933Z,6.80
2017-10-01T13:10:12.665Z,6.37
2017-10-01T13:12:39.258Z,6.30
2017-10-01T13:15:05.834Z,5.83
2017-10-01T13:17:32.425Z,5.87
2017-10-01T13:19:59.008Z,6.67
2017-10-01T13:22:25.598Z,6.50
2017-10-01T13:24:52.179Z,3.67
2017-10-01T13:27:19.281Z,3.83
2017-10-01T13:29:45.858Z,3.60
2017-10-01T13:32:12.450Z,4.10
2017-10-01T13:34:39.070Z,6.20
2017-10-01T13:37:05.650Z,5.90
2017-10-01T13:39:32.242Z,3.93
2017-10-01T13:41:58.865Z,4.77
2017-10-01T13:44:25.450Z,2.90
2017-10-01T13:46:52.042Z,9.50
2017-10-01T13:49:18.640Z,7.90
2017-10-01T13:51:45.218Z,4.97
2017-10-01T13:54:12.427Z,7.50
2017-10-01T13:56:39.011Z,3.43
2017-10-01T13:59:05.595Z,2.87
2017-10-01T14:01:32.190Z,5.80
2017-10-01T14:03:58.774Z,7.90
2017-10-01T14:06:25.366Z,4.93
2017-10-01T14:08:51.961Z,5.80
2017-10-01T14:11:18.766Z,2.47
2017-10-01T14:13:45.346Z,4.07
2017-10-01T14:16:12.974Z,3.90
2017-10-01T14:18:39.574Z,4.50
2017-10-01T14:21:06.785Z,5.30
2017-10-01T14:23:33.362Z,11.60
2017-10-01T14:25:59.950Z,8.13
2017-10-01T14:28:26.825Z,3.03
2017-10-01T14:30:59.122Z,4.67
2017-10-01T14:33:25.794Z,6.50
2017-10-01T14:35:52.370Z,5.53
2017-10-01T14:38:26.515Z,5.63
2017-10-01T14:40:53.119Z,4.60
2017-10-01T14:43:19.698Z,5.50
2017-10-01T14:45:46.287Z,5.30
2017-10-01T14:48:12.874Z,9.40
2017-10-01T14:50:39.446Z,6.33
2017-10-01T14:53:06.038Z,4.73
2017-10-01T14:55:32.617Z,10.30
2017-10-01T14:57:59.386Z,5.33
2017-10-01T15:00:25.967Z,4.03
2017-10-01T15:02:52.542Z,5.00
2017-10-01T15:05:19.155Z,7.07
2017-10-01T15:07:45.744Z,10.33
2017-10-01T15:10:12.333Z,8.97
2017-10-01T15:12:38.915Z,6.13
2017-10-01T15:15:05.662Z,3.30
2017-10-01T15:17:32.242Z,5.20
2017-10-01T15:19:58.826Z,4.47
2017-10-01T15:22:25.415Z,3.17
2017-10-01T15:24:51.998Z,4.83
2017-10-01T15:27:18.590Z,6.23
2017-10-01T15:29:45.170Z,6.60
2017-10-01T15:32:12.077Z,7.00
2017-10-01T15:34:38.678Z,10.10
2017-10-01T15:37:05.263Z,7.40
2017-10-01T15:39:31.885Z,7.80
2017-10-01T15:41:58.458Z,3.33
2017-10-01T15:44:25.047Z,4.23
2017-10-01T15:46:51.643Z,5.47
2017-10-01T15:49:18.259Z,7.90
2017-10-01T15:51:44.847Z,7.53
2017-10-01T15:54:11.423Z,2.90
2017-10-01T15:56:38.010Z,6.97
2017-10-01T15:59:04.590Z,3.93
2017-10-01T16:01:31.175Z,5.90
2017-10-01T16:03:57.755Z,4.80
2017-10-01T16:06:24.378Z,5.57
2017-10-01T16:08:50.958Z,5.23
2017-10-01T16:11:17.897Z,6.53
2017-10-01T16:13:47.891Z,5.77
2017-10-01T16:16:14.489Z,8.73
2017-10-01T16:18:41.118Z,9.50
2017-10-01T16:21:07.705Z,11.63
2017-10-01T16:23:34.326Z,6.83
2017-10-01T16:26:00.906Z,5.73
2017-10-01T16:28:27.497Z,3.63
2017-10-01T16:30:54.110Z,8.30
2017-10-01T16:33:20.694Z,7.30
2017-10-01T16:35:47.286Z,6.93
2017-10-01T16:38:14.618Z,4.90
2017-10-01T16:40:41.293Z,5.40
2017-10-01T16:43:07.886Z,6.87
2017-10-01T16:45:37.675Z,6.83
2017-10-01T16:48:07.402Z,7.80
2017-10-01T16:50:37.418Z,7.03
2017-10-01T16:53:05.818Z,10.73
2017-10-01T16:55:32.643Z,10.00
2017-10-01T16:58:06.809Z,6.83
2017-10-01T17:00:33.391Z,7.90
2017-10-01T17:03:00.019Z,7.97
2017-10-01T17:05:26.606Z,6.80
2017-10-01T17:07:53.187Z,5.23
2017-10-01T17:10:19.822Z,4.00
2017-10-01T17:12:46.417Z,4.07
2017-10-01T17:15:13.142Z,5.30
2017-10-01T17:17:39.738Z,12.63
2017-10-01T17:20:06.326Z,10.13
2017-10-01T17:22:38.569Z,14.37
2017-10-01T17:25:05.159Z,7.13
2017-10-01T17:27:31.756Z,8.50
2017-10-01T17:29:58.404Z,4.13
2017-10-01T17:32:25.019Z,3.40
2017-10-01T17:34:51.608Z,8.30
2017-10-01T17:37:18.227Z,5.80
2017-10-01T17:39:44.921Z,7.73
2017-10-01T17:42:11.555Z,8.20
2017-10-01T17:44:38.125Z,4.67
2017-10-01T17:47:04.700Z,6.47
2017-10-01T17:49:31.317Z,10.90
2017-10-01T17:51:57.898Z,5.17
2017-10-01T17:54:24.572Z,5.60
2017-10-01T17:56:51.162Z,8.63
2017-10-01T17:59:17.754Z,13.13
2017-10-01T18:01:44.494Z,8.33
2017-10-01T18:04:11.078Z,8.43
2017-10-01T18:06:37.667Z,14.30
2017-10-01T18:09:04.255Z,7.53
2017-10-01T18:11:30.901Z,7.47
2017-10-01T18:13:57.561Z,6.20
2017-10-01T18:16:24.163Z,11.33
2017-10-01T18:18:50.752Z,8.77
2017-10-01T18:21:17.423Z,6.40
2017-10-01T18:23:44.007Z,7.87
2017-10-01T18:26:10.610Z,6.00
2017-10-01T18:28:37.194Z,7.73
2017-10-01T18:31:03.778Z,12.40
2017-10-01T18:33:30.370Z,11.50
2017-10-01T18:35:57.006Z,7.57
2017-10-01T18:38:23.758Z,7.67
2017-10-01T18:40:50.344Z,13.40
2017-10-01T18:43:16.941Z,6.37
2017-10-01T18:45:43.522Z,7.13
2017-10-01T18:48:10.142Z,8.40
2017-10-01T18:50:36.880Z,5.70
2017-10-01T18:53:03.459Z,6.67
2017-10-01T18:55:30.064Z,6.63
2017-10-01T18:57:56.655Z,6.80
2017-10-01T19:00:23.234Z,8.57
2017-10-01T19:02:49.904Z,10.90
2017-10-01T19:05:16.513Z,9.60
2017-10-01T19:07:43.086Z,8.43
2017-10-01T19:10:09.683Z,6.20
2017-10-01T19:12:36.274Z,6.90
2017-10-01T19:15:02.917Z,9.73
2017-10-01T19:17:29.524Z,11.03
2017-10-01T19:19:56.154Z,9.50
2017-10-01T19:22:22.739Z,6.30
2017-10-01T19:24:49.323Z,8.00
2017-10-01T19:27:19.480Z,5.73
2017-10-01T19:29:47.874Z,5.10
2017-10-01T19:32:14.503Z,15.03
2017-10-01T19:34:41.136Z,7.57
2017-10-01T19:37:07.731Z,7.87
2017-10-01T19:39:34.689Z,10.07
2017-10-01T19:42:01.272Z,8.27
2017-10-01T19:44:31.482Z,5.60
2017-10-01T19:47:01.546Z,6.87
2017-10-01T19:49:28.187Z,8.30
2017-10-01T19:51:54.798Z,6.10
2017-10-01T19:54:21.378Z,6.33
2017-10-01T19:56:47.959Z,8.03
2017-10-01T19:59:14.547Z,9.83
2017-10-01T20:01:41.126Z,7.40
2017-10-01T20:04:08.598Z,7.17
2017-10-01T20:06:35.232Z,9.43
2017-10-01T20:09:01.862Z,9.97
2017-10-01T20:11:28.438Z,7.60
2017-10-01T20:13:55.063Z,5.00
2017-10-01T20:16:21.634Z,6.23
2017-10-01T20:18:48.222Z,8.77
2017-10-01T20:21:14.814Z,5.63
2017-10-01T20:23:41.449Z,9.10
2017-10-01T20:26:09.007Z,8.50
2017-10-01T20:28:35.627Z,7.27
2017-10-01T20:31:02.229Z,13.47
2017-10-01T20:33:29.024Z,5.90
2017-10-01T20:35:55.598Z,6.13
2017-10-01T20:38:32.462Z,10.10
2017-10-01T20:40:59.090Z,8.13
2017-10-01T20:43:25.670Z,9.33
2017-10-01T20:48:36.232Z,6.30
2017-10-01T20:51:02.834Z,5.77
2017-10-01T20:53:29.418Z,5.93
2017-10-01T20:55:55.985Z,5.90
2017-10-01T20:58:22.569Z,7.27
2017-10-01T21:00:49.144Z,8.03
2017-10-01T21:03:15.713Z,9.00
2017-10-01T21:05:42.293Z,6.93
2017-10-01T21:08:08.971Z,5.13
2017-10-01T21:10:35.542Z,6.93
2017-10-01T21:13:02.116Z,7.70
2017-10-01T21:15:28.693Z,7.80
2017-10-01T21:17:55.265Z,6.40
2017-10-01T21:20:21.837Z,5.97
2017-10-01T21:22:48.420Z,7.43
2017-10-01T21:25:15.010Z,8.37
2017-10-01T21:27:41.617Z,10.33
2017-10-01T21:30:08.201Z,9.77
2017-10-01T21:32:34.861Z,8.20
2017-10-01T21:35:01.429Z,10.53
2017-10-01T21:37:28.006Z,7.93
2017-10-01T21:39:54.580Z,7.70
2017-10-01T21:42:21.164Z,9.10
2017-10-01T21:44:47.740Z,5.93
2017-10-01T21:47:14.323Z,6.37
2017-10-01T21:49:40.897Z,7.40
2017-10-01T21:52:07.476Z,9.80
2017-10-01T21:54:34.044Z,5.47
2017-10-01T21:57:00.777Z,6.60
2017-10-01T21:59:27.353Z,6.30
2017-10-01T22:01:53.933Z,10.23
2017-10-01T22:04:20.512Z,6.33
2017-10-01T22:06:47.092Z,5.00
2017-10-01T22:09:13.932Z,10.33
2017-10-01T22:11:40.503Z,6.93
2017-10-01T22:14:07.068Z,7.33
2017-10-01T22:16:33.641Z,6.90
2017-10-01T22:19:00.217Z,9.23
2017-10-01T22:21:26.814Z,7.30
2017-10-01T22:23:53.464Z,6.10
2017-10-01T22:26:20.213Z,12.70
2017-10-01T22:28:46.792Z,8.77
2017-10-01T22:31:13.360Z,8.67
2017-10-01T22:33:39.941Z,7.70
2017-10-01T22:36:06.517Z,9.47
2017-10-01T22:38:33.092Z,6.37
2017-10-01T22:40:59.668Z,5.93
2017-10-01T22:43:26.273Z,5.60
2017-10-01T22:45:52.860Z,5.00
2017-10-01T22:48:19.417Z,7.67
2017-10-01T22:50:45.996Z,7.47
2017-10-01T22:53:12.576Z,6.30
2017-10-01T22:55:39.448Z,8.17
2017-10-01T22:58:06.094Z,6.50
2017-10-01T23:00:32.648Z,4.87
2017-10-01T23:02:59.232Z,15.03
2017-10-01T23:05:25.805Z,3.30
2017-10-01T23:07:52.397Z,7.27
2017-10-01T23:10:18.969Z,6.17
2017-10-01T23:12:45.545Z,13.67
2017-10-01T23:15:12.146Z,4.30
2017-10-01T23:17:38.741Z,6.20
2017-10-01T23:20:05.304Z,5.73
2017-10-01T23:22:31.925Z,5.70
2017-10-01T23:24:58.501Z,4.77
2017-10-01T23:27:25.084Z,6.47
2017-10-01T23:29:51.657Z,4.60
2017-10-01T23:32:18.396Z,3.53
2017-10-01T23:34:44.976Z,7.17
2017-10-01T23:37:11.557Z,6.70
2017-10-01T23:39:38.154Z,7.33
2017-10-01T23:42:04.709Z,5.10
2017-10-01T23:44:31.293Z,8.73
2017-10-01T23:46:57.865Z,4.83
2017-10-01T23:49:24.565Z,7.37
2017-10-01T23:51:51.145Z,7.67
2017-10-01T23:54:17.720Z,8.50
2017-10-01T23:56:44.305Z,5.17
2017-10-01T23:59:10.885Z,5.43
